• Join FlightAware (Why Join?)
  • Login
  • US Flag 
11:12PM EDT


 

Airport Tracker/Info


-or-


 

Live Flight TrackerFlight Track Log ✈ UAL1421 ✈ 22-Aug-2013 ✈ KIAH - MNMG / MGA

Flight Track Log - Related Links

Times and Time Zones

All times are in EDT time to prevent confusion due to time zone crossing. See the UAL1421 flight status page for this flight to view local times or setup timezone preferences in your user account.

Time Position Orientation Groundspeed Altitude Reporting Facility
EDT Latitude Longitude Course Direction KTS MPH feet Rate Location/Type
08:06PM 29.9689 -95.3462 1000° North 100  Level FlightAware ADS-B
08:07PM 29.9585 -95.3398 152° Southeast 169 194 800 2,640 Climbing FlightAware ADS-B
08:07PM 29.9561 -95.3378 144° Southeast 169 194 900 2,520 Climbing FlightAware ADS-B
08:07PM 29.9540 -95.3353 134° Southeast 170 196 1,100 1,500 Climbing FlightAware ADS-B
08:07PM 29.9481 -95.3265 128° Southeast 176 203 1,300 1,200 Climbing FlightAware ADS-B
08:07PM 29.9390 -95.3117 125° Southeast 198 228 1,700 1,800 Climbing FlightAware ADS-B
08:07PM 29.9303 -95.2978 126° Southeast 214 246 2,300 2,460 Climbing FlightAware ADS-B
08:08PM 29.9249 -95.2891 126° Southeast 216 249 2,700 2,520 Climbing FlightAware ADS-B
08:08PM 29.9175 -95.2777 127° Southeast 221 254 3,200 1,920 Climbing FlightAware ADS-B
08:08PM 29.9075 -95.2619 126° Southeast 245 282 3,600 1,500 Climbing FlightAware ADS-B
08:08PM 29.8960 -95.2440 127° Southeast 264 304 4,000 480 Climbing FlightAware ADS-B
08:09PM 29.8746 -95.2105 126° Southeast 264 304 4,000  Level FlightAware ADS-B
08:09PM 29.8644 -95.1942 126° Southeast 262 302 4,000  Level FlightAware ADS-B
08:09PM 29.8497 -95.1710 128° Southeast 261 300 4,000  Level FlightAware ADS-B
08:09PM 29.8470 -95.1678 134° Southeast 262 302 4,000  Level FlightAware ADS-B
08:10PM 29.8437 -95.1645 139° Southeast 264 304 4,000  Level FlightAware ADS-B
08:10PM 29.8405 -95.1616 142° Southeast 265 305 4,000 660 Level FlightAware ADS-B
08:10PM 29.8344 -95.1565 144° Southeast 267 307 4,100 900 Climbing FlightAware ADS-B
08:10PM 29.8272 -95.1515 149° Southeast 269 310 4,200 900 Climbing FlightAware ADS-B
08:10PM 29.8209 -95.1478 153° Southeast 270 311 4,300 1,500 Climbing FlightAware ADS-B
08:10PM 29.8041 -95.1390 156° South 277 319 4,700 2,460 Climbing FlightAware ADS-B
08:10PM 29.7863 -95.1298 156° South 276 318 5,500 3,000 Climbing FlightAware ADS-B
08:11PM 29.7687 -95.1205 155° Southeast 279 321 6,200 2,700 Climbing FlightAware ADS-B
08:11PM 29.7505 -95.1112 156° South 283 326 6,900 2,700 Climbing FlightAware ADS-B
08:11PM 29.7324 -95.1020 156° South 288 331 7,600 2,580 Climbing FlightAware ADS-B
08:12PM 29.6394 -95.0548 156° South 313 360 10,800 2,040 Climbing FlightAware ADS-B
08:14PM 29.4870 -94.9777 156° South 387 445 13,500 1,740 Climbing FlightAware ADS-B
08:15PM 29.4280 -94.9478 156° South 399 459 14,800 2,340 Climbing FlightAware ADS-B
08:15PM 29.3753 -94.9213 156° South 402 463 16,100 2,280 Climbing FlightAware ADS-B
08:16PM 29.3223 -94.8945 156° South 408 470 17,200 1,860 Climbing FlightAware ADS-B
08:16PM 29.2819 -94.8741 156° South 416 479 17,800 1,740 Climbing FlightAware ADS-B
08:16PM 29.2584 -94.8603 153° Southeast 418 481 18,300 1,860 Climbing FlightAware ADS-B
08:17PM 29.2057 -94.8246 149° Southeast 425 489 19,200 1,800 Climbing FlightAware ADS-B
08:17PM 29.1513 -94.7875 149° Southeast 430 495 20,200 1,860 Climbing FlightAware ADS-B
08:18PM 29.0984 -94.7515 149° Southeast 433 498 21,200 1,740 Climbing FlightAware ADS-B
08:18PM 29.0461 -94.7162 149° Southeast 437 503 22,000 1,560 Climbing FlightAware ADS-B
08:19PM 28.9811 -94.6723 149° Southeast 443 510 23,000 1,500 Climbing FlightAware ADS-B
08:19PM 28.9270 -94.6357 149° Southeast 449 517 23,700 1,500 Climbing FlightAware ADS-B
08:20PM 28.8706 -94.5976 149° Southeast 451 519 24,600 1,560 Climbing FlightAware ADS-B
08:21PM 28.8117 -94.5579 149° Southeast 455 524 25,400 1,380 Climbing FlightAware ADS-B
08:21PM 28.7523 -94.5180 150° Southeast 459 528 26,100 1,200 Climbing FlightAware ADS-B
08:22PM 28.6892 -94.4754 149° Southeast 461 531 26,800 660 Climbing FlightAware ADS-B
08:22PM 28.6310 -94.4360 149° Southeast 466 536 26,900 60 Climbing FlightAware
08:23PM 28.5740 -94.3970 149° Southeast 466 536 26,900  Level FlightAware
08:23PM 28.5160 -94.3570 149° Southeast 466 536 26,900  Level FlightAware
08:24PM 28.4590 -94.3190 150° Southeast 466 536 26,900  Level FlightAware
08:25PM 28.4030 -94.2800 149° Southeast 466 536 26,900 4,860 Level FlightAware
08:25PM 28.3290 -94.2344 152° Southeast 481 554 30,500 6,300 Climbing FlightAware ADS-B
08:25PM 28.2678 -94.1937 150° Southeast 481 554 31,100 1,020 Climbing FlightAware ADS-B
08:27PM 28.0730 -94.0360 144° Southeast 487 560 33,000 780 Climbing FlightAware
08:28PM 28.0200 -93.9830 139° Southeast 487 560 33,000  Level FlightAware
08:28PM 27.9660 -93.9310 140° Southeast 487 560 33,000  Level FlightAware
08:29PM 27.9140 -93.8800 139° Southeast 487 560 33,000  Level FlightAware
08:30PM 27.8620 -93.8280 139° Southeast 487 560 33,000  Level FlightAware
08:30PM 27.8130 -93.7800 139° Southeast 487 560 33,000  Level FlightAware
08:31PM 27.7610 -93.7290 139° Southeast 487 560 33,000  Level FlightAware
08:31PM 27.7090 -93.6780 139° Southeast 487 560 33,000  Level FlightAware
08:32PM 27.6570 -93.6270 139° Southeast 487 560 33,000  Level FlightAware
08:33PM 27.6040 -93.5740 138° Southeast 487 560 33,000  Level FlightAware
08:33PM 27.5510 -93.5230 140° Southeast 487 560 33,000  Level FlightAware
08:34PM 27.4980 -93.4710 139° Southeast 487 560 33,000  Level FlightAware
08:34PM 27.4460 -93.4200 139° Southeast 487 560 33,000  Level FlightAware
08:35PM 27.3940 -93.3690 139° Southeast 487 560 33,000  Level FlightAware
08:36PM 27.3420 -93.3180 139° Southeast 487 560 33,000  Level FlightAware
08:36PM 27.2900 -93.2670 139° Southeast 487 560 33,000  Level FlightAware
08:37PM 27.2360 -93.2150 139° Southeast 487 560 33,000 3,000 Level FlightAware
08:37PM 27.0494 -93.0672 139° Southeast 459 528 37,000 2,280 Climbing Houston Center
08:39PM 26.9614 -92.9883 141° Southeast 460 529 37,000  Level Houston Center
08:44PM 26.3721 -92.5777 141° Southeast 449 517 37,000  Level FlightAware ADS-B
08:48PM 25.9973 -92.3064 150° Southeast  Level FlightAware Approximate
08:49PM 25.8912 -92.2375 150° Southeast  Level FlightAware Approximate
08:50PM 25.7841 -92.1704 152° Southeast  Level FlightAware Approximate
08:51PM 25.6759 -92.1056 152° Southeast  Level FlightAware Approximate
08:52PM 25.5702 -92.0360 149° Southeast  Level FlightAware Approximate
08:53PM 25.4647 -91.9660 149° Southeast  Level FlightAware Approximate
08:54PM 25.3592 -91.8963 149° Southeast  Level FlightAware Approximate
08:55PM 25.2536 -91.8266 149° Southeast  Level FlightAware Approximate
08:56PM 25.1480 -91.7570 149° Southeast  Level FlightAware Approximate
08:57PM 25.0424 -91.6876 149° Southeast  Level FlightAware Approximate
08:58PM 24.9367 -91.6183 149° Southeast  Level FlightAware Approximate
08:59PM 24.8310 -91.5491 149° Southeast  Level FlightAware Approximate
09:00PM 24.7253 -91.4800 149° Southeast  Level FlightAware Approximate
09:01PM 24.6195 -91.4111 149° Southeast  Level FlightAware Approximate
09:02PM 24.5137 -91.3422 149° Southeast  Level FlightAware Approximate
09:02PM 24.4780 -91.3390 149° Southeast 37,000  Level FlightAware
09:03PM 24.3920 -91.2760 146° Southeast 444 511 37,000  Level FlightAware
09:03PM 24.3380 -91.2370 147° Southeast 444 511 37,000  Level FlightAware
09:04PM 24.2880 -91.2020 147° Southeast 444 511 37,000  Level FlightAware
09:04PM 24.2160 -91.1910 172° South 37,000  Level FlightAware
09:04PM 24.2110 -91.1880 151° Southeast 450 518 37,000  Level FlightAware
09:05PM 24.1030 -91.1360 156° South 452 520 37,000  Level FlightAware
09:06PM 24.0450 -91.1070 155° Southeast 452 520 37,000  Level FlightAware
09:06PM 23.9770 -91.0820 161° South 456 525 37,000  Level FlightAware
09:07PM 23.8920 -91.0420 157° South 456 525 37,000  Level FlightAware
09:07PM 23.8400 -91.0170 156° South 457 526 37,000  Level FlightAware
09:08PM 23.7820 -90.9890 156° South 457 526 37,000  Level FlightAware
09:09PM 23.6750 -90.9370 156° South 456 525 37,000  Level FlightAware
09:09PM 23.6050 -90.9040 157° South 456 525 37,000  Level FlightAware
09:10PM 23.5360 -90.8710 156° South 456 525 37,000  Level FlightAware
09:10PM 23.4900 -90.8490 156° South 456 525 37,000  Level FlightAware
09:11PM 23.4110 -90.8110 156° South 455 524 37,000  Level FlightAware
09:12PM 23.3340 -90.7750 157° South 453 521 37,000  Level FlightAware
09:12PM 23.2670 -90.7430 156° South 452 520 37,000  Level FlightAware
09:13PM 23.2050 -90.7140 157° South 450 518 37,000  Level FlightAware
09:13PM 23.1370 -90.6810 156° South 451 519 37,000  Level FlightAware
09:14PM 23.0680 -90.6480 156° South 450 518 37,000  Level FlightAware
09:14PM 22.9970 -90.6150 157° South 453 521 37,000  Level FlightAware
09:15PM 22.9170 -90.5770 156° South 454 522 37,000  Level FlightAware
09:16PM 22.8550 -90.5480 157° South 454 522 37,000  Level FlightAware
09:16PM 22.7860 -90.5150 156° South 454 522 37,000  Level FlightAware
09:17PM 22.7190 -90.4830 156° South 456 525 37,000  Level FlightAware
09:17PM 22.6490 -90.4510 157° South 455 524 37,000  Level FlightAware
09:18PM 22.5790 -90.4180 156° South 456 525 37,000  Level FlightAware
09:19PM 22.5100 -90.3850 156° South 455 524 37,000  Level FlightAware
09:19PM 22.4400 -90.3520 156° South 455 524 37,000  Level FlightAware
09:20PM 22.3780 -90.3230 157° South 456 525 37,000  Level FlightAware
09:20PM 22.3090 -90.2910 157° South 456 525 37,000  Level FlightAware
09:21PM 22.2420 -90.2590 156° South 456 525 37,000  Level FlightAware
09:22PM 22.1760 -90.2290 157° South 457 526 37,000  Level FlightAware
09:22PM 22.1020 -90.1950 157° South 459 528 37,000  Level FlightAware
09:23PM 22.0400 -90.1660 157° South 460 529 37,000  Level FlightAware
09:23PM 21.9700 -90.1330 156° South 461 531 37,000  Level FlightAware
09:24PM 21.8980 -90.1000 157° South 461 531 37,000  Level FlightAware
09:24PM 21.8360 -90.0700 156° South 460 529 37,000  Level FlightAware
09:25PM 21.7620 -90.0360 157° South 459 528 37,000  Level FlightAware
09:26PM 21.6950 -90.0050 157° South 459 528 37,000  Level FlightAware
09:26PM 21.6240 -89.9720 157° South 459 528 37,000  Level FlightAware
09:27PM 21.5590 -89.9420 157° South 459 528 37,000  Level FlightAware
09:27PM 21.4870 -89.9090 157° South 459 528 37,000  Level FlightAware
09:28PM 21.4180 -89.8770 157° South 459 528 37,000  Level FlightAware
09:29PM 21.3520 -89.8460 156° South 460 529 37,000  Level FlightAware
09:29PM 21.2850 -89.8150 157° South 461 531 37,000  Level FlightAware
09:30PM 21.2120 -89.7820 157° South 464 534 37,000  Level FlightAware
09:30PM 21.1430 -89.7500 157° South 463 533 37,000  Level FlightAware
09:31PM 21.0790 -89.7210 157° South 463 533 37,000  Level FlightAware
09:32PM 21.0030 -89.6860 157° South 466 536 37,000  Level FlightAware
09:32PM 20.9400 -89.6570 157° South 466 536 37,000  Level FlightAware
09:33PM 20.8670 -89.6270 159° South 466 536 37,000  Level FlightAware
09:33PM 20.7950 -89.5990 160° South 464 534 37,000  Level FlightAware
09:34PM 20.7220 -89.5690 159° South 463 533 37,000  Level FlightAware
09:34PM 20.6620 -89.5340 151° Southeast 462 532 37,000  Level FlightAware
09:35PM 20.5960 -89.4940 150° Southeast 462 532 37,000  Level FlightAware
09:36PM 20.5310 -89.4550 151° Southeast 461 531 37,000  Level FlightAware
09:36PM 20.4660 -89.4130 149° Southeast 461 531 37,000  Level FlightAware
09:37PM 20.4000 -89.3700 149° Southeast 458 527 37,000  Level FlightAware
09:37PM 20.3340 -89.3290 150° Southeast 456 525 37,000  Level FlightAware
09:38PM 20.2770 -89.2910 148° Southeast 455 524 37,000  Level FlightAware
09:39PM 20.2100 -89.2450 147° Southeast 455 524 37,000  Level FlightAware
09:39PM 20.1480 -89.1980 145° Southeast 455 524 37,000  Level FlightAware
09:40PM 20.1010 -89.1490 136° Southeast 456 525 37,000  Level FlightAware
09:40PM 20.0790 -89.1190 128° Southeast 456 525 37,000  Level FlightAware
09:40PM 20.0430 -89.0590 123° Southeast 455 524 37,000  Level FlightAware
09:41PM 20.0020 -88.9900 122° Southeast 457 526 37,000  Level FlightAware
09:42PM 19.9640 -88.9210 120° Southeast 459 528 37,000  Level FlightAware
09:42PM 19.9240 -88.8510 121° Southeast 463 533 37,000  Level FlightAware
09:43PM 19.8950 -88.8000 121° Southeast 461 531 37,000  Level FlightAware
09:43PM 19.8330 -88.7150 128° Southeast 451 519 37,000  Level FlightAware
09:44PM 19.7830 -88.6620 135° Southeast 448 516 37,000  Level FlightAware
09:45PM 19.7270 -88.6110 139° Southeast 447 514 37,000  Level FlightAware
09:45PM 19.6890 -88.5840 146° Southeast 446 513 37,000  Level FlightAware
09:46PM 19.6170 -88.5620 164° South 443 510 37,000  Level FlightAware
09:46PM 19.5580 -88.5470 167° South 442 509 37,000  Level FlightAware
09:47PM 19.4910 -88.5370 172° South 441 507 37,000  Level FlightAware
09:47PM 19.4190 -88.5380 181° South 444 511 37,000  Level FlightAware
09:48PM 19.3710 -88.5390 181° South 447 514 37,000  Level FlightAware
09:48PM 19.2760 -88.5410 181° South 452 520 37,000  Level FlightAware
09:49PM 19.2060 -88.5420 181° South 455 524 37,000  Level FlightAware
09:50PM 19.0830 -88.5440 181° South 454 522 37,000  Level FlightAware
09:50PM 19.0190 -88.5380 175° South 455 524 37,000  Level FlightAware
09:51PM 18.9470 -88.5180 165° South 457 526 37,000  Level FlightAware
09:52PM 18.8810 -88.4980 164° South 456 525 37,000  Level FlightAware
09:52PM 18.8080 -88.4760 164° South 454 522 37,000  Level FlightAware
09:53PM 18.7360 -88.4540 164° South 453 521 37,000  Level FlightAware
09:53PM 18.6630 -88.4320 164° South 452 520 37,000  Level FlightAware
09:54PM 18.5900 -88.4100 164° South 451 519 37,000  Level FlightAware
09:55PM 18.5140 -88.3870 164° South 455 524 37,000  Level FlightAware
09:55PM 18.4280 -88.3610 164° South 461 531 37,000  Level FlightAware
09:56PM 18.3580 -88.3400 164° South 461 531 37,000  Level FlightAware
09:56PM 18.3630 -88.3420 339° North 324 373 37,000  Level FlightAware
09:57PM 18.2410 -88.3060 164° South 460 529 37,000  Level FlightAware
09:58PM 18.1640 -88.2830 164° South 460 529 37,000  Level FlightAware
09:58PM 18.0980 -88.2630 164° South 460 529 37,000  Level FlightAware
09:59PM 18.0330 -88.2430 164° South 460 529 37,000  Level FlightAware
09:59PM 17.9730 -88.2250 164° South 460 529 37,000  Level FlightAware
10:00PM 17.9100 -88.2060 164° South 460 529 37,000  Level FlightAware
10:01PM 17.8460 -88.1870 164° South 460 529 37,000  Level FlightAware
10:01PM 17.7830 -88.1680 164° South 460 529 37,000  Level FlightAware
10:02PM 17.7190 -88.1480 163° South 460 529 37,000  Level FlightAware
10:02PM 17.6560 -88.1300 165° South 460 529 37,000  Level FlightAware
10:03PM 17.5940 -88.1110 164° South 460 529 37,000  Level FlightAware
10:04PM 17.5270 -88.0910 164° South 460 529 37,000  Level FlightAware
10:04PM 17.4650 -88.0720 164° South 460 529 37,000  Level FlightAware
10:05PM 17.4020 -88.0530 164° South 460 529 37,000  Level FlightAware
10:05PM 17.3400 -88.0340 164° South 460 529 37,000  Level FlightAware
10:06PM 17.2770 -88.0160 165° South 460 529 37,000  Level FlightAware
10:07PM 17.2140 -87.9970 164° South 460 529 37,000  Level FlightAware
10:07PM 17.1520 -87.9780 164° South 460 529 37,000  Level FlightAware
10:10PM 16.8944 -87.8827 161° South  Level Estimated
10:11PM 16.7799 -87.8404 161° South  Level Estimated
10:12PM 16.6654 -87.7982 161° South  Level Estimated
10:13PM 16.5509 -87.7560 161° South  Level Estimated
10:14PM 16.4363 -87.7139 161° South  Level Estimated
10:15PM 16.3218 -87.6718 161° South  Level Estimated
10:16PM 16.2073 -87.6298 161° South  Level Estimated
10:17PM 16.0927 -87.5878 161° South  Level Estimated
10:18PM 15.9781 -87.5458 161° South  Level Estimated
10:19PM 15.8636 -87.5040 161° South  Level Estimated
10:20PM 15.7490 -87.4621 161° South  Level Estimated
10:21PM 15.6344 -87.4203 161° South  Level Estimated
10:22PM 15.5198 -87.3786 161° South  Level Estimated
10:23PM 15.4052 -87.3369 161° South  Level Estimated
10:24PM 15.2906 -87.2952 161° South  Level Estimated
10:25PM 15.1760 -87.2536 161° South  Level Estimated
10:26PM 15.0614 -87.2121 161° South  Level Estimated
10:27PM 14.9467 -87.1705 161° South  Level Estimated
10:28PM 14.8321 -87.1291 161° South  Level Estimated
10:29PM 14.7174 -87.0876 161° South  Level Estimated
10:30PM 14.6028 -87.0462 161° South  Level Estimated
10:31PM 14.4881 -87.0049 161° South  Level Estimated
10:32PM 14.3735 -86.9636 161° South  Level Estimated
10:33PM 14.2588 -86.9223 161° South  Level Estimated
10:34PM 14.1441 -86.8811 161° South  Level Estimated
10:35PM 14.0294 -86.8400 161° South  Level Estimated
10:36PM 13.9147 -86.7988 161° South  Level Estimated
10:37PM 13.8000 -86.7578 161° South  Level Estimated
10:38PM 13.6853 -86.7167 161° South  Level Estimated
10:39PM 13.5706 -86.6757 161° South  Level Estimated
10:40PM 13.4559 -86.6347 161° South  Level Estimated
10:41PM 13.3411 -86.5938 161° South  Level Estimated
10:42PM 13.2264 -86.5529 161° South  Level Estimated
10:43PM 13.1117 -86.5120 161° South  Level Estimated
10:44PM 12.9969 -86.4712 161° South  Level Estimated
10:45PM 12.8821 -86.4304 161° South  Level Estimated
10:46PM 12.7674 -86.3897 161° South  Level Estimated
10:47PM 12.6526 -86.3490 161° South  Level Estimated
10:48PM 12.5378 -86.3083 161° South  Level Estimated
10:49PM 12.4230 -86.2677 161° South  Level Estimated
10:50PM 12.3083 -86.2271 161° South  Level Estimated
10:51PM 12.1935 -86.1865 161° South  Level Estimated
10:52PM 12.1415 -86.1682 161° South  Level Estimated
10:53PM 12.1415 -86.1682 26° Northeast  Level Estimated
10:54PM 12.1415 -86.1682 26° Northeast  Level Estimated
10:55PM 12.1415 -86.1682 26° Northeast  Level Estimated
10:56PM 12.1415 -86.1682 26° Northeast  Level Estimated
10:57PM 12.1415 -86.1682 26° Northeast  Level Estimated